sensor_id;sensor_type;location;lat;lon;timestamp;pressure;altitude;pressure_sealevel;temperature;humidity
64025;BME280;50266;57.446;26.936;2023-06-22T00:00:57;99436.95;;;18.16;100.0
64025;BME280;50266;57.446;26.936;2023-06-22T00:01:56;99440.16;;;18.17;100.0
64025;BME280;50266;57.446;26.936;2023-06-22T00:02:56;99437.16;;;18.13;100.0
64025;BME280;50266;57.446;26.936;2023-06-22T00:03:56;99435.75;;;18.14;100.0
64025;BME280;50266;57.446;26.936;2023-06-22T00:04:56;99432.44;;;18.11;100.0
64025;BME280;50266;57.446;26.936;2023-06-22T00:05:56;99433.71;;;18.12;100.0
64025;BME280;50266;57.446;26.936;2023-06-22T00:06:56;99435.99;;;18.13;100.0
64025;BME280;50266;57.446;26.936;2023-06-22T00:07:57;99431.44;;;18.12;100.0
64025;BME280;50266;57.446;26.936;2023-06-22T00:08:56;99433.84;;;18.07;100.0
64025;BME280;50266;57.446;26.936;2023-06-22T00:09:56;99432.88;;;18.04;100.0
64025;BME280;50266;57.446;26.936;2023-06-22T00:10:56;99435.05;;;18.02;100.0
64025;BME280;50266;57.446;26.936;2023-06-22T00:11:56;99432.3;;;17.98;100.0
64025;BME280;50266;57.446;26.936;2023-06-22T00:12:56;99432.62;;;17.96;100.0
64025;BME280;50266;57.446;26.936;2023-06-22T00:13:56;99432.53;;;17.96;100.0
64025;BME280;50266;57.446;26.936;2023-06-22T00:14:57;99430.73;;;17.94;100.0
64025;BME280;50266;57.446;26.936;2023-06-22T00:15:57;99427.09;;;17.91;100.0
64025;BME280;50266;57.446;26.936;2023-06-22T00:16:57;99424.5;;;17.93;100.0
64025;BME280;50266;57.446;26.936;2023-06-22T00:17:57;99424.43;;;17.93;100.0
64025;BME280;50266;57.446;26.936;2023-06-22T00:18:57;99421.9;;;17.92;100.0
64025;BME280;50266;57.446;26.936;2023-06-22T00:19:57;99417.97;;;17.95;100.0
64025;BME280;50266;57.446;26.936;2023-06-22T00:20:57;99421.44;;;17.96;100.0
64025;BME280;50266;57.446;26.936;2023-06-22T00:21:57;99420.81;;;17.99;100.0
64025;BME280;50266;57.446;26.936;2023-06-22T00:22:57;99418.06;;;17.95;100.0
64025;BME280;50266;57.446;26.936;2023-06-22T00:23:57;99419.09;;;17.91;100.0
64025;BME280;50266;57.446;26.936;2023-06-22T00:24:57;99419.53;;;17.91;100.0
64025;BME280;50266;57.446;26.936;2023-06-22T00:25:57;99417.71;;;17.84;100.0
64025;BME280;50266;57.446;26.936;2023-06-22T00:26:57;99418.58;;;17.8;100.0
64025;BME280;50266;57.446;26.936;2023-06-22T00:27:57;99418.95;;;17.77;100.0
64025;BME280;50266;57.446;26.936;2023-06-22T00:28:57;99413.88;;;17.74;100.0
64025;BME280;50266;57.446;26.936;2023-06-22T00:29:57;99416.28;;;17.72;100.0
64025;BME280;50266;57.446;26.936;2023-06-22T00:30:57;99415.49;;;17.76;100.0
64025;BME280;50266;57.446;26.936;2023-06-22T00:31:57;99416.77;;;17.7;100.0
64025;BME280;50266;57.446;26.936;2023-06-22T00:32:57;99412.87;;;17.65;100.0
64025;BME280;50266;57.446;26.936;2023-06-22T00:33:57;99416.47;;;17.67;100.0
64025;BME280;50266;57.446;26.936;2023-06-22T00:34:57;99410.94;;;17.65;100.0
64025;BME280;50266;57.446;26.936;2023-06-22T00:35:57;99410.41;;;17.6;100.0
64025;BME280;50266;57.446;26.936;2023-06-22T00:36:57;99408.59;;;17.66;100.0
64025;BME280;50266;57.446;26.936;2023-06-22T00:37:58;99405.98;;;17.66;100.0
64025;BME280;50266;57.446;26.936;2023-06-22T00:38:57;99407.55;;;17.72;100.0
64025;BME280;50266;57.446;26.936;2023-06-22T00:39:58;99410.59;;;17.67;100.0
64025;BME280;50266;57.446;26.936;2023-06-22T00:40:58;99410.78;;;17.63;100.0
64025;BME280;50266;57.446;26.936;2023-06-22T00:41:58;99408.39;;;17.54;100.0
64025;BME280;50266;57.446;26.936;2023-06-22T00:42:58;99410.73;;;17.53;100.0
64025;BME280;50266;57.446;26.936;2023-06-22T00:43:58;99409.84;;;17.49;100.0
64025;BME280;50266;57.446;26.936;2023-06-22T00:44:58;99410.66;;;17.54;100.0
64025;BME280;50266;57.446;26.936;2023-06-22T00:45:58;99406.97;;;17.54;100.0
64025;BME280;50266;57.446;26.936;2023-06-22T00:46:58;99407.39;;;17.55;100.0
64025;BME280;50266;57.446;26.936;2023-06-22T00:47:58;99408.09;;;17.57;100.0
64025;BME280;50266;57.446;26.936;2023-06-22T00:48:58;99407.42;;;17.57;100.0
64025;BME280;50266;57.446;26.936;2023-06-22T00:49:58;99405.77;;;17.52;100.0
64025;BME280;50266;57.446;26.936;2023-06-22T00:50:58;99407.17;;;17.57;100.0
64025;BME280;50266;57.446;26.936;2023-06-22T00:51:58;99403.25;;;17.59;100.0
64025;BME280;50266;57.446;26.936;2023-06-22T00:52:58;99406.86;;;17.58;100.0
64025;BME280;50266;57.446;26.936;2023-06-22T00:53:58;99404.69;;;17.59;100.0
64025;BME280;50266;57.446;26.936;2023-06-22T00:54:58;99407.8;;;17.6;100.0
64025;BME280;50266;57.446;26.936;2023-06-22T00:55:58;99408.78;;;17.58;100.0
64025;BME280;50266;57.446;26.936;2023-06-22T00:56:58;99407.64;;;17.61;100.0
64025;BME280;50266;57.446;26.936;2023-06-22T00:57:58;99408.87;;;17.58;100.0
64025;BME280;50266;57.446;26.936;2023-06-22T00:58:58;99409.75;;;17.55;100.0
64025;BME280;50266;57.446;26.936;2023-06-22T00:59:58;99402.42;;;17.45;100.0
64025;BME280;50266;57.446;26.936;2023-06-22T01:00:58;99408.22;;;17.4;100.0
64025;BME280;50266;57.446;26.936;2023-06-22T01:01:58;99407.7;;;17.38;100.0
64025;BME280;50266;57.446;26.936;2023-06-22T01:02:58;99406.3;;;17.34;100.0
64025;BME280;50266;57.446;26.936;2023-06-22T01:03:58;99403.27;;;17.34;100.0
64025;BME280;50266;57.446;26.936;2023-06-22T01:04:58;99410.98;;;17.39;100.0
64025;BME280;50266;57.446;26.936;2023-06-22T01:06:02;99405.42;;;17.43;100.0
64025;BME280;50266;57.446;26.936;2023-06-22T01:07:12;99402.42;;;17.47;100.0
64025;BME280;50266;57.446;26.936;2023-06-22T01:10:16;99400.09;;;17.55;100.0
64025;BME280;50266;57.446;26.936;2023-06-22T01:12:10;99397.69;;;17.51;100.0
64025;BME280;50266;57.446;26.936;2023-06-22T01:13:30;99399.98;;;17.48;100.0
64025;BME280;50266;57.446;26.936;2023-06-22T01:14:28;99396.89;;;17.4;100.0
64025;BME280;50266;57.446;26.936;2023-06-22T01:15:31;99398.41;;;17.34;100.0
64025;BME280;50266;57.446;26.936;2023-06-22T01:16:27;99392.28;;;17.29;100.0
64025;BME280;50266;57.446;26.936;2023-06-22T01:17:20;99395.71;;;17.21;100.0
64025;BME280;50266;57.446;26.936;2023-06-22T01:18:20;99389.59;;;17.21;100.0
64025;BME280;50266;57.446;26.936;2023-06-22T01:19:26;99389.55;;;17.24;100.0
64025;BME280;50266;57.446;26.936;2023-06-22T01:20:25;99389.52;;;17.3;100.0
64025;BME280;50266;57.446;26.936;2023-06-22T01:21:25;99388.14;;;17.25;100.0
64025;BME280;50266;57.446;26.936;2023-06-22T01:22:25;99385.67;;;17.23;100.0
64025;BME280;50266;57.446;26.936;2023-06-22T01:23:29;99390.04;;;17.25;100.0
64025;BME280;50266;57.446;26.936;2023-06-22T01:24:33;99391.88;;;17.17;100.0
64025;BME280;50266;57.446;26.936;2023-06-22T01:25:36;99386.27;;;17.18;100.0
64025;BME280;50266;57.446;26.936;2023-06-22T01:26:43;99383.6;;;17.19;100.0
64025;BME280;50266;57.446;26.936;2023-06-22T01:27:40;99381.53;;;17.21;100.0
64025;BME280;50266;57.446;26.936;2023-06-22T01:28:45;99383.27;;;17.2;100.0
64025;BME280;50266;57.446;26.936;2023-06-22T01:29:42;99386.04;;;17.19;100.0
64025;BME280;50266;57.446;26.936;2023-06-22T01:30:43;99384.34;;;17.12;100.0
64025;BME280;50266;57.446;26.936;2023-06-22T01:31:42;99384.58;;;17.12;100.0
64025;BME280;50266;57.446;26.936;2023-06-22T01:32:42;99382.06;;;17.04;100.0
64025;BME280;50266;57.446;26.936;2023-06-22T01:33:44;99381.11;;;17.03;100.0
64025;BME280;50266;57.446;26.936;2023-06-22T01:34:42;99382.81;;;17.04;100.0
64025;BME280;50266;57.446;26.936;2023-06-22T01:35:42;99384.02;;;17.08;100.0
64025;BME280;50266;57.446;26.936;2023-06-22T01:36:43;99380.95;;;17.1;100.0
64025;BME280;50266;57.446;26.936;2023-06-22T01:37:42;99377.3;;;17.18;100.0
64025;BME280;50266;57.446;26.936;2023-06-22T01:38:43;99374.92;;;17.22;100.0
64025;BME280;50266;57.446;26.936;2023-06-22T01:39:42;99375.34;;;17.23;100.0
64025;BME280;50266;57.446;26.936;2023-06-22T01:40:43;99374.45;;;17.24;100.0
64025;BME280;50266;57.446;26.936;2023-06-22T01:41:43;99375.33;;;17.3;100.0
64025;BME280;50266;57.446;26.936;2023-06-22T01:42:43;99370.61;;;17.28;100.0
64025;BME280;50266;57.446;26.936;2023-06-22T01:43:43;99368.59;;;17.28;100.0
64025;BME280;50266;57.446;26.936;2023-06-22T01:44:43;99370.33;;;17.32;100.0
64025;BME280;50266;57.446;26.936;2023-06-22T01:45:43;99371.16;;;17.43;100.0
64025;BME280;50266;57.446;26.936;2023-06-22T01:46:43;99368.3;;;17.43;100.0
64025;BME280;50266;57.446;26.936;2023-06-22T01:47:43;99366.55;;;17.47;100.0
64025;BME280;50266;57.446;26.936;2023-06-22T01:48:43;99365.5;;;17.49;100.0
64025;BME280;50266;57.446;26.936;2023-06-22T01:49:43;99363.54;;;17.47;100.0
64025;BME280;50266;57.446;26.936;2023-06-22T01:50:43;99366.81;;;17.45;100.0
64025;BME280;50266;57.446;26.936;2023-06-22T01:51:43;99363.33;;;17.57;100.0
64025;BME280;50266;57.446;26.936;2023-06-22T01:52:43;99359.44;;;17.54;100.0
64025;BME280;50266;57.446;26.936;2023-06-22T01:53:43;99359.49;;;17.58;100.0
64025;BME280;50266;57.446;26.936;2023-06-22T01:54:48;99357.25;;;17.61;100.0
64025;BME280;50266;57.446;26.936;2023-06-22T01:55:45;99362.8;;;17.81;100.0
64025;BME280;50266;57.446;26.936;2023-06-22T01:56:45;99355.16;;;17.74;100.0
64025;BME280;50266;57.446;26.936;2023-06-22T01:57:45;99359.33;;;17.72;100.0
64025;BME280;50266;57.446;26.936;2023-06-22T01:58:50;99361.62;;;17.8;100.0
64025;BME280;50266;57.446;26.936;2023-06-22T01:59:49;99363.63;;;17.73;100.0
64025;BME280;50266;57.446;26.936;2023-06-22T02:00:51;99362.08;;;17.63;100.0
64025;BME280;50266;57.446;26.936;2023-06-22T02:01:52;99366.62;;;17.58;100.0
64025;BME280;50266;57.446;26.936;2023-06-22T02:03:01;99363.2;;;17.59;100.0
64025;BME280;50266;57.446;26.936;2023-06-22T02:04:02;99363.34;;;17.57;100.0
64025;BME280;50266;57.446;26.936;2023-06-22T02:05:08;99359.48;;;17.58;100.0
64025;BME280;50266;57.446;26.936;2023-06-22T02:05:56;99363.12;;;17.6;100.0
64025;BME280;50266;57.446;26.936;2023-06-22T02:06:56;99359.56;;;17.58;100.0
64025;BME280;50266;57.446;26.936;2023-06-22T02:08:07;99362.29;;;17.48;100.0
64025;BME280;50266;57.446;26.936;2023-06-22T02:09:01;99362.2;;;17.45;100.0
64025;BME280;50266;57.446;26.936;2023-06-22T02:10:00;99366.2;;;17.43;100.0
64025;BME280;50266;57.446;26.936;2023-06-22T02:11:00;99365.88;;;17.44;100.0
64025;BME280;50266;57.446;26.936;2023-06-22T02:12:00;99369.97;;;17.42;100.0
64025;BME280;50266;57.446;26.936;2023-06-22T02:13:00;99369.48;;;17.38;100.0
64025;BME280;50266;57.446;26.936;2023-06-22T02:14:00;99372.02;;;17.39;100.0
64025;BME280;50266;57.446;26.936;2023-06-22T02:15:00;99369.77;;;17.39;100.0
64025;BME280;50266;57.446;26.936;2023-06-22T02:16:00;99368.75;;;17.33;100.0
64025;BME280;50266;57.446;26.936;2023-06-22T02:17:00;99371.16;;;17.32;100.0
64025;BME280;50266;57.446;26.936;2023-06-22T02:18:00;99366.31;;;17.33;100.0
64025;BME280;50266;57.446;26.936;2023-06-22T02:19:00;99367.73;;;17.32;100.0
64025;BME280;50266;57.446;26.936;2023-06-22T02:20:01;99368.93;;;17.28;100.0
64025;BME280;50266;57.446;26.936;2023-06-22T02:21:00;99372.67;;;17.32;100.0
64025;BME280;50266;57.446;26.936;2023-06-22T02:22:00;99368.91;;;17.32;100.0
64025;BME280;50266;57.446;26.936;2023-06-22T02:23:00;99369.66;;;17.32;100.0
64025;BME280;50266;57.446;26.936;2023-06-22T02:24:00;99368.62;;;17.35;100.0
64025;BME280;50266;57.446;26.936;2023-06-22T02:25:00;99370.19;;;17.4;100.0
64025;BME280;50266;57.446;26.936;2023-06-22T02:26:00;99370.08;;;17.44;100.0
64025;BME280;50266;57.446;26.936;2023-06-22T02:27:01;99370.73;;;17.43;100.0
64025;BME280;50266;57.446;26.936;2023-06-22T02:28:00;99366.22;;;17.44;100.0
64025;BME280;50266;57.446;26.936;2023-06-22T02:29:00;99365.47;;;17.46;100.0
64025;BME280;50266;57.446;26.936;2023-06-22T02:30:00;99369.42;;;17.47;100.0
64025;BME280;50266;57.446;26.936;2023-06-22T02:31:00;99369.78;;;17.49;100.0
64025;BME280;50266;57.446;26.936;2023-06-22T02:32:00;99369.54;;;17.5;100.0
64025;BME280;50266;57.446;26.936;2023-06-22T02:33:00;99368.66;;;17.47;100.0
64025;BME280;50266;57.446;26.936;2023-06-22T02:34:00;99370.53;;;17.49;100.0
64025;BME280;50266;57.446;26.936;2023-06-22T02:35:00;99370.62;;;17.49;100.0
64025;BME280;50266;57.446;26.936;2023-06-22T02:36:00;99368.41;;;17.53;100.0
64025;BME280;50266;57.446;26.936;2023-06-22T02:37:00;99366.28;;;17.51;100.0
64025;BME280;50266;57.446;26.936;2023-06-22T02:38:01;99363.87;;;17.52;100.0
64025;BME280;50266;57.446;26.936;2023-06-22T02:39:00;99371.83;;;17.51;100.0
64025;BME280;50266;57.446;26.936;2023-06-22T02:40:01;99368.62;;;17.57;100.0
64025;BME280;50266;57.446;26.936;2023-06-22T02:41:00;99366.17;;;17.62;100.0
64025;BME280;50266;57.446;26.936;2023-06-22T02:42:00;99370.02;;;17.61;100.0
64025;BME280;50266;57.446;26.936;2023-06-22T02:43:00;99366.09;;;17.56;100.0
64025;BME280;50266;57.446;26.936;2023-06-22T02:44:00;99364.73;;;17.65;100.0
64025;BME280;50266;57.446;26.936;2023-06-22T02:45:00;99366.67;;;17.75;100.0
64025;BME280;50266;57.446;26.936;2023-06-22T02:46:00;99362.07;;;17.69;100.0
64025;BME280;50266;57.446;26.936;2023-06-22T02:47:00;99364.35;;;17.71;100.0
64025;BME280;50266;57.446;26.936;2023-06-22T02:48:00;99362.36;;;17.72;100.0
64025;BME280;50266;57.446;26.936;2023-06-22T02:49:00;99362.72;;;17.67;100.0
64025;BME280;50266;57.446;26.936;2023-06-22T02:50:01;99360.06;;;17.77;100.0
64025;BME280;50266;57.446;26.936;2023-06-22T02:51:01;99363.11;;;17.78;100.0
64025;BME280;50266;57.446;26.936;2023-06-22T02:52:00;99362.0;;;17.77;100.0
64025;BME280;50266;57.446;26.936;2023-06-22T02:53:01;99359.55;;;17.76;100.0
64025;BME280;50266;57.446;26.936;2023-06-22T02:54:00;99360.09;;;17.79;100.0
64025;BME280;50266;57.446;26.936;2023-06-22T02:55:00;99360.75;;;17.78;100.0
64025;BME280;50266;57.446;26.936;2023-06-22T02:56:03;99362.45;;;17.87;100.0
64025;BME280;50266;57.446;26.936;2023-06-22T02:57:01;99362.95;;;17.89;100.0
64025;BME280;50266;57.446;26.936;2023-06-22T02:58:01;99359.81;;;17.94;100.0
64025;BME280;50266;57.446;26.936;2023-06-22T02:59:01;99355.72;;;17.95;100.0
64025;BME280;50266;57.446;26.936;2023-06-22T03:00:02;99358.15;;;17.95;100.0
64025;BME280;50266;57.446;26.936;2023-06-22T03:01:01;99359.19;;;17.98;100.0
64025;BME280;50266;57.446;26.936;2023-06-22T03:02:01;99360.5;;;17.95;100.0
64025;BME280;50266;57.446;26.936;2023-06-22T03:03:01;99361.52;;;17.96;100.0
64025;BME280;50266;57.446;26.936;2023-06-22T03:04:01;99365.75;;;17.98;100.0
64025;BME280;50266;57.446;26.936;2023-06-22T03:05:01;99359.92;;;17.95;100.0
64025;BME280;50266;57.446;26.936;2023-06-22T03:06:01;99365.34;;;17.99;100.0
64025;BME280;50266;57.446;26.936;2023-06-22T03:07:01;99364.0;;;17.99;100.0
64025;BME280;50266;57.446;26.936;2023-06-22T03:08:01;99366.61;;;18.08;100.0
64025;BME280;50266;57.446;26.936;2023-06-22T03:09:04;99364.45;;;18.13;100.0
64025;BME280;50266;57.446;26.936;2023-06-22T03:10:01;99365.31;;;18.14;100.0
64025;BME280;50266;57.446;26.936;2023-06-22T03:11:01;99361.41;;;18.19;100.0
64025;BME280;50266;57.446;26.936;2023-06-22T03:12:01;99361.13;;;18.17;100.0
64025;BME280;50266;57.446;26.936;2023-06-22T03:13:01;99360.06;;;18.29;100.0
64025;BME280;50266;57.446;26.936;2023-06-22T03:14:01;99359.88;;;18.25;100.0
64025;BME280;50266;57.446;26.936;2023-06-22T03:15:01;99359.73;;;18.31;100.0
64025;BME280;50266;57.446;26.936;2023-06-22T03:16:01;99359.15;;;18.31;100.0
64025;BME280;50266;57.446;26.936;2023-06-22T03:17:01;99357.73;;;18.32;100.0
64025;BME280;50266;57.446;26.936;2023-06-22T03:18:01;99358.61;;;18.36;100.0
64025;BME280;50266;57.446;26.936;2023-06-22T03:19:01;99358.97;;;18.38;100.0
64025;BME280;50266;57.446;26.936;2023-06-22T03:20:01;99358.56;;;18.39;100.0
64025;BME280;50266;57.446;26.936;2023-06-22T03:21:01;99353.67;;;18.5;100.0
64025;BME280;50266;57.446;26.936;2023-06-22T03:22:01;99357.28;;;18.46;100.0
64025;BME280;50266;57.446;26.936;2023-06-22T03:23:01;99355.8;;;18.52;100.0
64025;BME280;50266;57.446;26.936;2023-06-22T03:24:01;99355.88;;;18.52;100.0
64025;BME280;50266;57.446;26.936;2023-06-22T03:25:01;99359.1;;;18.61;100.0
64025;BME280;50266;57.446;26.936;2023-06-22T03:26:01;99354.12;;;18.6;100.0
64025;BME280;50266;57.446;26.936;2023-06-22T03:27:01;99355.2;;;18.68;100.0
64025;BME280;50266;57.446;26.936;2023-06-22T03:28:01;99356.64;;;18.73;100.0
64025;BME280;50266;57.446;26.936;2023-06-22T03:29:01;99356.12;;;18.71;100.0
64025;BME280;50266;57.446;26.936;2023-06-22T03:30:01;99353.53;;;18.73;100.0
64025;BME280;50266;57.446;26.936;2023-06-22T03:31:01;99354.55;;;18.7;100.0
64025;BME280;50266;57.446;26.936;2023-06-22T03:32:01;99352.8;;;18.76;100.0
64025;BME280;50266;57.446;26.936;2023-06-22T03:33:01;99353.35;;;18.81;100.0
64025;BME280;50266;57.446;26.936;2023-06-22T03:34:01;99356.38;;;18.81;100.0
64025;BME280;50266;57.446;26.936;2023-06-22T03:35:01;99355.48;;;18.84;100.0
64025;BME280;50266;57.446;26.936;2023-06-22T03:36:01;99353.95;;;18.83;100.0
64025;BME280;50266;57.446;26.936;2023-06-22T03:37:01;99351.38;;;18.87;100.0
64025;BME280;50266;57.446;26.936;2023-06-22T03:38:01;99354.92;;;18.88;100.0
64025;BME280;50266;57.446;26.936;2023-06-22T03:39:01;99352.91;;;18.93;100.0
64025;BME280;50266;57.446;26.936;2023-06-22T03:40:01;99353.0;;;18.95;100.0
64025;BME280;50266;57.446;26.936;2023-06-22T03:41:01;99354.55;;;18.99;100.0
64025;BME280;50266;57.446;26.936;2023-06-22T03:42:01;99352.3;;;19.02;100.0
64025;BME280;50266;57.446;26.936;2023-06-22T03:43:01;99350.67;;;18.98;100.0
64025;BME280;50266;57.446;26.936;2023-06-22T03:44:01;99351.59;;;18.99;100.0
64025;BME280;50266;57.446;26.936;2023-06-22T03:45:02;99350.86;;;19.02;100.0
64025;BME280;50266;57.446;26.936;2023-06-22T03:46:01;99353.51;;;19.07;100.0
64025;BME280;50266;57.446;26.936;2023-06-22T03:47:02;99348.52;;;19.03;100.0
64025;BME280;50266;57.446;26.936;2023-06-22T03:48:01;99348.11;;;19.05;100.0
64025;BME280;50266;57.446;26.936;2023-06-22T03:49:01;99349.27;;;19.02;100.0
64025;BME280;50266;57.446;26.936;2023-06-22T03:50:01;99347.58;;;19.01;100.0
64025;BME280;50266;57.446;26.936;2023-06-22T03:51:01;99348.02;;;19.03;100.0
64025;BME280;50266;57.446;26.936;2023-06-22T03:52:02;99349.89;;;19.06;100.0
64025;BME280;50266;57.446;26.936;2023-06-22T03:53:01;99344.78;;;19.1;100.0
64025;BME280;50266;57.446;26.936;2023-06-22T03:54:01;99341.9;;;19.12;100.0
64025;BME280;50266;57.446;26.936;2023-06-22T03:55:02;99342.67;;;19.1;100.0
64025;BME280;50266;57.446;26.936;2023-06-22T03:56:01;99343.52;;;19.15;100.0
64025;BME280;50266;57.446;26.936;2023-06-22T03:57:01;99344.19;;;19.15;100.0
64025;BME280;50266;57.446;26.936;2023-06-22T03:58:01;99342.0;;;19.16;100.0
64025;BME280;50266;57.446;26.936;2023-06-22T03:59:01;99341.28;;;19.21;100.0
64025;BME280;50266;57.446;26.936;2023-06-22T04:00:02;99339.59;;;19.19;100.0
64025;BME280;50266;57.446;26.936;2023-06-22T04:01:02;99338.64;;;19.17;100.0
64025;BME280;50266;57.446;26.936;2023-06-22T04:02:02;99339.87;;;19.24;100.0
64025;BME280;50266;57.446;26.936;2023-06-22T04:03:02;99341.56;;;19.26;100.0
64025;BME280;50266;57.446;26.936;2023-06-22T04:04:02;99335.75;;;19.26;100.0
64025;BME280;50266;57.446;26.936;2023-06-22T04:05:02;99336.01;;;19.27;100.0
64025;BME280;50266;57.446;26.936;2023-06-22T04:06:02;99339.3;;;19.34;100.0
64025;BME280;50266;57.446;26.936;2023-06-22T04:07:02;99338.15;;;19.38;100.0
64025;BME280;50266;57.446;26.936;2023-06-22T04:08:02;99330.73;;;19.36;100.0
64025;BME280;50266;57.446;26.936;2023-06-22T04:09:02;99332.44;;;19.41;100.0
64025;BME280;50266;57.446;26.936;2023-06-22T04:10:03;99335.74;;;19.45;100.0
64025;BME280;50266;57.446;26.936;2023-06-22T04:11:02;99333.73;;;19.49;100.0
64025;BME280;50266;57.446;26.936;2023-06-22T04:12:02;99331.85;;;19.42;100.0
64025;BME280;50266;57.446;26.936;2023-06-22T04:13:02;99330.36;;;19.46;100.0
64025;BME280;50266;57.446;26.936;2023-06-22T04:14:02;99327.88;;;19.55;100.0
64025;BME280;50266;57.446;26.936;2023-06-22T04:15:02;99326.06;;;19.66;100.0
64025;BME280;50266;57.446;26.936;2023-06-22T04:16:02;99326.14;;;19.63;100.0
64025;BME280;50266;57.446;26.936;2023-06-22T04:17:02;99322.1;;;19.65;100.0
64025;BME280;50266;57.446;26.936;2023-06-22T04:18:02;99322.37;;;19.67;100.0
64025;BME280;50266;57.446;26.936;2023-06-22T04:19:02;99316.83;;;19.73;100.0
64025;BME280;50266;57.446;26.936;2023-06-22T04:20:02;99317.91;;;19.8;100.0
64025;BME280;50266;57.446;26.936;2023-06-22T04:21:02;99318.38;;;19.92;100.0
64025;BME280;50266;57.446;26.936;2023-06-22T04:22:02;99314.59;;;19.95;100.0
64025;BME280;50266;57.446;26.936;2023-06-22T04:23:02;99317.19;;;19.92;100.0
64025;BME280;50266;57.446;26.936;2023-06-22T04:24:02;99317.27;;;19.89;100.0
64025;BME280;50266;57.446;26.936;2023-06-22T04:25:02;99320.81;;;20.01;100.0
64025;BME280;50266;57.446;26.936;2023-06-22T04:26:02;99314.83;;;20.17;100.0
64025;BME280;50266;57.446;26.936;2023-06-22T04:27:02;99315.1;;;20.09;100.0
64025;BME280;50266;57.446;26.936;2023-06-22T04:28:02;99315.34;;;20.01;100.0
64025;BME280;50266;57.446;26.936;2023-06-22T04:29:05;99313.77;;;20.14;100.0
64025;BME280;50266;57.446;26.936;2023-06-22T04:30:08;99312.64;;;20.22;100.0
64025;BME280;50266;57.446;26.936;2023-06-22T04:31:05;99308.09;;;20.26;100.0
64025;BME280;50266;57.446;26.936;2023-06-22T04:32:05;99301.44;;;20.27;100.0
64025;BME280;50266;57.446;26.936;2023-06-22T04:33:05;99308.17;;;20.18;100.0
64025;BME280;50266;57.446;26.936;2023-06-22T04:34:05;99297.65;;;20.34;100.0
64025;BME280;50266;57.446;26.936;2023-06-22T04:35:05;99299.42;;;20.4;100.0
64025;BME280;50266;57.446;26.936;2023-06-22T04:36:05;99291.75;;;20.47;100.0
64025;BME280;50266;57.446;26.936;2023-06-22T04:37:05;99293.69;;;20.41;100.0
64025;BME280;50266;57.446;26.936;2023-06-22T04:38:05;99293.52;;;20.52;100.0
64025;BME280;50266;57.446;26.936;2023-06-22T04:39:06;99292.52;;;20.49;100.0
64025;BME280;50266;57.446;26.936;2023-06-22T04:40:06;99290.66;;;20.52;100.0
64025;BME280;50266;57.446;26.936;2023-06-22T04:41:05;99293.02;;;20.57;100.0
64025;BME280;50266;57.446;26.936;2023-06-22T04:42:05;99287.42;;;20.61;100.0
64025;BME280;50266;57.446;26.936;2023-06-22T04:43:05;99286.83;;;20.69;100.0
64025;BME280;50266;57.446;26.936;2023-06-22T04:44:05;99291.22;;;20.64;100.0
64025;BME280;50266;57.446;26.936;2023-06-22T04:45:05;99287.58;;;20.68;100.0
64025;BME280;50266;57.446;26.936;2023-06-22T04:46:05;99291.2;;;20.75;100.0
64025;BME280;50266;57.446;26.936;2023-06-22T04:47:05;99293.7;;;20.8;100.0
64025;BME280;50266;57.446;26.936;2023-06-22T04:48:05;99294.88;;;20.8;100.0
64025;BME280;50266;57.446;26.936;2023-06-22T04:49:08;99289.9;;;20.84;100.0
64025;BME280;50266;57.446;26.936;2023-06-22T04:50:06;99293.52;;;20.89;100.0
64025;BME280;50266;57.446;26.936;2023-06-22T04:51:05;99293.69;;;20.92;100.0
64025;BME280;50266;57.446;26.936;2023-06-22T04:52:06;99283.51;;;21.0;100.0
64025;BME280;50266;57.446;26.936;2023-06-22T04:53:05;99283.04;;;20.98;100.0
64025;BME280;50266;57.446;26.936;2023-06-22T04:54:05;99281.72;;;21.05;100.0
64025;BME280;50266;57.446;26.936;2023-06-22T04:55:06;99286.19;;;21.14;100.0
64025;BME280;50266;57.446;26.936;2023-06-22T04:56:05;99278.66;;;21.17;100.0
64025;BME280;50266;57.446;26.936;2023-06-22T04:57:06;99282.61;;;21.23;100.0
64025;BME280;50266;57.446;26.936;2023-06-22T04:58:05;99281.49;;;21.29;100.0
64025;BME280;50266;57.446;26.936;2023-06-22T04:59:05;99275.73;;;21.34;100.0
64025;BME280;50266;57.446;26.936;2023-06-22T05:00:06;99272.25;;;21.39;100.0
64025;BME280;50266;57.446;26.936;2023-06-22T05:01:05;99272.44;;;21.46;100.0
64025;BME280;50266;57.446;26.936;2023-06-22T05:02:05;99271.67;;;21.48;100.0
64025;BME280;50266;57.446;26.936;2023-06-22T05:03:05;99273.88;;;21.45;100.0
64025;BME280;50266;57.446;26.936;2023-06-22T05:04:05;99270.02;;;21.58;100.0
64025;BME280;50266;57.446;26.936;2023-06-22T05:05:06;99268.09;;;21.68;100.0
64025;BME280;50266;57.446;26.936;2023-06-22T05:06:05;99269.09;;;21.69;100.0
64025;BME280;50266;57.446;26.936;2023-06-22T05:07:05;99266.06;;;21.68;100.0
64025;BME280;50266;57.446;26.936;2023-06-22T05:08:05;99262.95;;;21.81;100.0
64025;BME280;50266;57.446;26.936;2023-06-22T05:09:05;99261.7;;;21.85;100.0
64025;BME280;50266;57.446;26.936;2023-06-22T05:10:06;99260.02;;;21.84;100.0
64025;BME280;50266;57.446;26.936;2023-06-22T05:11:05;99258.02;;;21.93;100.0
64025;BME280;50266;57.446;26.936;2023-06-22T05:12:06;99255.05;;;21.96;100.0
64025;BME280;50266;57.446;26.936;2023-06-22T05:13:06;99251.02;;;22.05;100.0
64025;BME280;50266;57.446;26.936;2023-06-22T05:14:06;99250.97;;;22.1;100.0
64025;BME280;50266;57.446;26.936;2023-06-22T05:15:06;99251.84;;;22.18;100.0
64025;BME280;50266;57.446;26.936;2023-06-22T05:16:06;99246.48;;;22.23;100.0
64025;BME280;50266;57.446;26.936;2023-06-22T05:17:06;99244.23;;;22.26;100.0
64025;BME280;50266;57.446;26.936;2023-06-22T05:18:06;99247.83;;;22.41;100.0
64025;BME280;50266;57.446;26.936;2023-06-22T05:19:06;99244.59;;;22.33;100.0